Time;durP1;ratioP1;P1;durP2;ratioP2;P2;SDS_P1;SDS_P2;PMS_P1;PMS_P2;Temp;Humidity;BMP_temperature;BMP_pressure;BME280_temperature;BME280_humidity;BME280_pressure;Samples;Min_cycle;Max_cycle;Signal;HPM_P1;HPM_P2
2022/12/03 00:02:12;;;;;;;30.47;19.10;;;;;;;-1.28;100.00;96481.09;5029990;28;20470;-75
2022/12/03 00:04:39;;;;;;;32.10;22.77;;;;;;;-1.42;100.00;96446.22;5030141;28;20893;-73
2022/12/03 00:07:05;;;;;;;28.33;20.10;;;;;;;-1.18;100.00;96470.00;5030021;28;20710;-73
2022/12/03 00:09:32;;;;;;;31.60;20.53;;;;;;;-1.24;100.00;96464.00;5029866;28;20458;-73
2022/12/03 00:11:59;;;;;;;28.10;20.43;;;;;;;-1.35;100.00;96448.59;5031294;28;20486;-73
2022/12/03 00:14:25;;;;;;;31.07;20.50;;;;;;;-1.32;100.00;96456.69;5029776;28;20438;-73
2022/12/03 00:16:52;;;;;;;31.60;21.90;;;;;;;-1.05;100.00;96490.34;5029840;28;20529;-73
2022/12/03 00:19:19;;;;;;;29.87;19.87;;;;;;;-1.46;100.00;96439.97;5029860;28;20480;-73
2022/12/03 00:21:45;;;;;;;27.17;20.07;;;;;;;-1.16;100.00;96480.16;5040975;28;20520;-73
2022/12/03 00:24:12;;;;;;;33.03;19.80;;;;;;;-1.15;100.00;96481.69;5031727;28;20546;-73
2022/12/03 00:26:38;;;;;;;29.47;19.57;;;;;;;-1.40;100.00;96446.75;5029688;28;20445;-73
2022/12/03 00:29:06;;;;;;;31.37;19.13;;;;;;;-1.38;100.00;96436.91;5030966;28;20842;-73
2022/12/03 00:31:32;;;;;;;33.63;20.67;;;;;;;-1.20;100.00;96480.66;5019676;28;20536;-73
2022/12/03 00:33:59;;;;;;;32.23;21.93;;;;;;;-1.40;100.00;96451.94;5049684;28;20473;-73
2022/12/03 00:36:26;;;;;;;33.00;21.50;;;;;;;-1.39;100.00;96444.94;5049652;28;20450;-73
2022/12/03 00:38:52;;;;;;;30.50;20.83;;;;;;;-1.24;100.00;96478.78;5049617;28;20429;-73
2022/12/03 00:41:19;;;;;;;31.60;20.37;;;;;;;-1.21;100.00;96462.72;5037755;28;20466;-73
2022/12/03 00:43:46;;;;;;;30.77;20.87;;;;;;;-1.40;100.00;96433.78;5029795;28;20433;-73
2022/12/03 00:46:12;;;;;;;29.00;18.93;;;;;;;-1.26;100.00;96444.53;5029453;28;20529;-73
2022/12/03 00:48:46;;;;;;;28.70;18.87;;;;;;;-1.35;100.00;96457.16;5029658;28;20462;-73
2022/12/03 00:51:13;;;;;;;34.43;20.73;;;;;;;-1.62;100.00;96427.88;5029319;28;20466;-73
2022/12/03 00:53:39;;;;;;;32.87;21.40;;;;;;;-1.48;100.00;96442.78;5016662;28;20469;-73
2022/12/03 00:56:06;;;;;;;29.67;19.97;;;;;;;-1.54;100.00;96436.00;5029290;28;20439;-73
2022/12/03 00:58:33;;;;;;;30.23;20.83;;;;;;;-1.51;100.00;96432.13;5029347;28;20438;-73
2022/12/03 01:01:00;;;;;;;37.00;21.77;;;;;;;-1.38;100.00;96452.47;5012844;28;20473;-73
2022/12/03 01:03:26;;;;;;;28.60;18.13;;;;;;;-1.52;100.00;96420.19;5030649;28;20858;-73
2022/12/03 01:05:53;;;;;;;31.40;20.17;;;;;;;-1.30;100.00;96466.81;5029488;28;20437;-74
2022/12/03 01:08:20;;;;;;;30.23;19.67;;;;;;;-1.46;100.00;96442.56;5030529;28;20422;-73
2022/12/03 01:10:46;;;;;;;28.13;17.40;;;;;;;-1.62;100.00;96428.66;5012925;28;20843;-73
2022/12/03 01:13:13;;;;;;;30.93;19.40;;;;;;;-1.37;100.00;96463.63;5033117;28;20448;-74
2022/12/03 01:15:40;;;;;;;30.87;20.70;;;;;;;-1.46;100.00;96444.38;5032847;28;20521;-73
2022/12/03 01:18:06;;;;;;;30.10;18.67;;;;;;;-1.43;100.00;96446.47;5033041;28;20444;-73
2022/12/03 01:20:35;;;;;;;26.20;19.00;;;;;;;-1.55;100.00;96431.84;5034198;28;20911;-73
2022/12/03 01:23:01;;;;;;;24.73;17.30;;;;;;;-1.45;100.00;96440.75;5032792;28;20532;-73
2022/12/03 01:25:28;;;;;;;24.30;17.73;;;;;;;-1.19;100.00;96468.47;5032708;28;20439;-73
2022/12/03 01:27:55;;;;;;;31.73;18.80;;;;;;;-1.36;100.00;96450.41;5033035;28;20434;-73
2022/12/03 01:30:21;;;;;;;29.93;18.80;;;;;;;-1.24;100.00;96478.78;5027616;28;20566;-73
2022/12/03 01:32:48;;;;;;;25.63;19.30;;;;;;;-1.21;100.00;96473.09;5032776;28;20452;-74
2022/12/03 01:35:15;;;;;;;25.60;18.07;;;;;;;-1.34;100.00;96445.75;5032710;28;20430;-73
2022/12/03 01:37:41;;;;;;;21.97;16.40;;;;;;;-1.53;100.00;96416.81;5016293;28;20448;-73
2022/12/03 01:40:12;;;;;;;27.63;19.17;;;;;;;-1.24;100.00;96471.00;5031255;28;20456;-73
2022/12/03 01:42:41;;;;;;;26.53;18.03;;;;;;;-1.26;100.00;96471.25;5052243;28;20457;-73
2022/12/03 01:45:19;;;;;;;25.43;17.80;;;;;;;-1.43;100.00;96454.25;5050600;28;20422;-73
2022/12/03 01:47:46;;;;;;;27.23;17.77;;;;;;;-1.55;100.00;96438.84;5033741;28;20513;-74
2022/12/03 01:50:29;;;;;;;27.40;18.60;;;;;;;-1.34;100.00;96466.50;5033458;28;20964;-74
2022/12/03 01:52:59;;;;;;;24.60;18.10;;;;;;;-1.23;100.00;96473.34;5033723;28;20817;-73
2022/12/03 01:55:26;;;;;;;26.20;17.47;;;;;;;-1.34;100.00;96450.94;5032183;28;20450;-73
2022/12/03 01:57:57;;;;;;;25.43;16.97;;;;;;;-1.38;100.00;96456.88;5032184;28;20889;-73
2022/12/03 02:00:26;;;;;;;25.87;16.90;;;;;;;-1.33;100.00;96465.50;5024026;28;20476;-73
2022/12/03 02:02:56;;;;;;;28.63;18.50;;;;;;;-1.57;100.00;96449.47;5035832;28;20798;-73
2022/12/03 02:05:26;;;;;;;27.07;18.80;;;;;;;-1.42;100.00;96472.16;5051991;28;20996;-73
2022/12/03 02:07:53;;;;;;;28.80;17.53;;;;;;;-1.34;100.00;96471.69;5035584;28;20810;-73
2022/12/03 02:10:26;;;;;;;25.27;16.03;;;;;;;-1.29;100.00;96470.97;5051950;28;20460;-73
2022/12/03 02:12:58;;;;;;;22.63;15.30;;;;;;;-1.70;100.00;96428.34;5053454;28;20421;-74
2022/12/03 02:15:25;;;;;;;27.03;17.73;;;;;;;-1.44;100.00;96452.69;5035212;28;20865;-74
2022/12/03 02:17:52;;;;;;;22.80;15.80;;;;;;;-1.38;100.00;96462.84;5053102;28;20441;-74
2022/12/03 02:20:19;;;;;;;31.07;20.70;;;;;;;-1.38;100.00;96460.25;5052845;28;20564;-73
2022/12/03 02:22:54;;;;;;;26.00;18.40;;;;;;;-1.24;100.00;96474.38;5045519;28;20485;-74
2022/12/03 02:25:33;;;;;;;24.13;16.80;;;;;;;-1.21;100.00;96483.47;5031967;28;20862;-74
2022/12/03 02:28:01;;;;;;;24.27;16.50;;;;;;;-1.53;100.00;96447.94;5031698;28;20468;-73
2022/12/03 02:30:29;;;;;;;21.03;16.40;;;;;;;-1.62;100.00;96425.28;5027745;28;20487;-73
2022/12/03 02:32:57;;;;;;;29.13;17.80;;;;;;;-1.21;100.00;96483.47;5032008;28;20524;-73
2022/12/03 02:35:30;;;;;;;27.53;18.90;;;;;;;-1.35;100.00;96467.53;5031687;28;20448;-74
2022/12/03 02:38:14;;;;;;;24.97;17.07;;;;;;;-1.29;100.00;96478.75;5031654;28;20442;-73
2022/12/03 02:40:42;;;;;;;23.33;16.77;;;;;;;-1.68;100.00;96405.56;5031552;28;20520;-73
2022/12/03 02:43:11;;;;;;;29.27;17.67;;;;;;;-1.56;100.00;96447.66;5031402;28;20444;-73
2022/12/03 02:45:42;;;;;;;23.30;15.77;;;;;;;-1.30;100.00;96477.97;5015148;28;20525;-74
2022/12/03 02:48:16;;;;;;;23.70;15.97;;;;;;;-1.34;100.00;96468.31;5014960;28;20442;-74
2022/12/03 02:50:49;;;;;;;23.53;15.90;;;;;;;-1.29;100.00;96476.94;5031299;28;20501;-74
2022/12/03 02:53:27;;;;;;;25.20;17.03;;;;;;;-1.26;100.00;96478.25;5014941;28;20956;-74
2022/12/03 02:55:57;;;;;;;21.40;15.10;;;;;;;-1.22;100.00;96474.91;5032762;28;20460;-74
2022/12/03 02:58:28;;;;;;;21.70;16.07;;;;;;;-1.40;100.00;96453.75;5031287;28;20973;-74
2022/12/03 03:00:55;;;;;;;25.07;16.87;;;;;;;-1.44;100.00;96455.28;5032505;28;20454;-74
2022/12/03 03:03:26;;;;;;;21.60;15.00;;;;;;;-1.28;100.00;96468.13;5031268;28;20427;-74
2022/12/03 03:05:55;;;;;;;25.63;17.50;;;;;;;-1.46;100.00;96434.78;5048059;28;20442;-75
2022/12/03 03:08:24;;;;;;;30.50;18.07;;;;;;;-1.40;100.00;96443.38;5014777;28;20500;-74
2022/12/03 03:10:51;;;;;;;22.73;15.97;;;;;;;-1.38;100.00;96457.66;5031009;28;20464;-74
2022/12/03 03:13:20;;;;;;;22.90;16.23;;;;;;;-1.56;100.00;96445.84;5031201;28;20855;-74
2022/12/03 03:15:47;;;;;;;21.97;16.20;;;;;;;-1.47;100.00;96461.72;5030660;28;20511;-74
2022/12/03 03:18:15;;;;;;;27.00;16.40;;;;;;;-1.42;100.00;96464.38;5030772;28;20443;-74
2022/12/03 03:20:42;;;;;;;26.30;17.30;;;;;;;-1.28;100.00;96475.91;5014469;28;20470;-74
2022/12/03 03:23:09;;;;;;;26.37;18.73;;;;;;;-1.32;100.00;96469.66;5030905;28;21028;-74
2022/12/03 03:25:37;;;;;;;21.23;15.27;;;;;;;-1.50;100.00;96441.47;5030866;28;20508;-73
2022/12/03 03:28:04;;;;;;;27.27;19.07;;;;;;;-1.25;100.00;96474.63;5030974;28;20532;-74
2022/12/03 03:30:33;;;;;;;22.20;15.60;;;;;;;-1.41;100.00;96442.59;5026052;28;20454;-74
2022/12/03 03:33:00;;;;;;;27.40;15.67;;;;;;;-1.21;100.00;96467.91;5013994;28;20443;-73
2022/12/03 03:35:27;;;;;;;29.13;18.20;;;;;;;-1.18;100.00;96477.78;5031995;28;20457;-74
2022/12/03 03:37:57;;;;;;;22.33;14.57;;;;;;;-1.31;100.00;96460.06;5030613;28;20438;-74
2022/12/03 03:40:24;;;;;;;24.87;16.87;;;;;;;-1.52;100.00;96433.16;5031847;28;20934;-74
2022/12/03 03:42:54;;;;;;;20.53;16.90;;;;;;;-1.84;100.00;96374.31;5025346;28;20500;-74
2022/12/03 03:45:21;;;;;;;24.67;17.17;;;;;;;-1.48;100.00;96444.59;5051620;28;20432;-73
2022/12/03 03:47:56;;;;;;;20.37;15.20;;;;;;;-1.49;100.00;96424.88;5050458;28;20448;-74
2022/12/03 03:50:23;;;;;;;19.73;15.37;;;;;;;-1.32;100.00;96464.47;5031139;28;20450;-73
2022/12/03 03:52:50;;;;;;;25.33;16.47;;;;;;;-1.31;100.00;96457.47;5030814;28;20422;-74
2022/12/03 03:55:19;;;;;;;25.97;17.40;;;;;;;-1.32;100.00;96464.47;5030494;28;20495;-73
2022/12/03 03:57:46;;;;;;;21.20;15.33;;;;;;;-1.23;100.00;96473.34;5032148;28;20945;-74
2022/12/03 04:00:16;;;;;;;25.87;16.00;;;;;;;-1.50;100.00;96449.25;5050319;28;20483;-74
2022/12/03 04:02:42;;;;;;;23.67;15.07;;;;;;;-1.29;100.00;96476.16;5050048;28;20469;-74
2022/12/03 04:05:20;;;;;;;22.63;15.67;;;;;;;-1.67;100.00;96414.88;5050115;28;20469;-74
2022/12/03 04:07:47;;;;;;;23.90;16.20;;;;;;;-1.15;100.00;96476.50;5050034;28;20441;-74
2022/12/03 04:13:00;;;;;;;22.60;15.50;;;;;;;-1.70;100.00;96392.06;5050242;28;20437;-74
2022/12/03 04:15:27;;;;;;;24.23;16.53;;;;;;;-1.25;100.00;96470.22;5049998;28;20434;-73
2022/12/03 04:20:40;;;;;;;24.03;15.63;;;;;;;-1.24;100.00;96468.41;5048238;28;20473;-73
2022/12/03 04:23:08;;;;;;;21.37;15.20;;;;;;;-1.15;100.00;96476.50;5030037;28;20462;-74
2022/12/03 04:36:36;;;;;;;22.87;15.10;;;;;;;-1.26;100.00;96454.91;5031375;28;20858;-73
2022/12/03 04:39:04;;;;;;;23.40;14.87;;;;;;;-1.17;100.00;96479.38;5029892;28;20426;-74
2022/12/03 04:41:30;;;;;;;26.80;16.10;;;;;;;-1.21;100.00;96463.50;5031150;28;20473;-73
2022/12/03 04:46:42;;;;;;;24.50;15.80;;;;;;;-1.28;100.00;96459.56;5035017;28;20484;-74
2022/12/03 04:49:08;;;;;;;22.47;15.70;;;;;;;-1.49;100.00;96424.88;5017408;28;20461;-73
2022/12/03 04:51:35;;;;;;;19.40;13.97;;;;;;;-1.45;100.00;96432.97;5017422;28;20446;-73
2022/12/03 04:54:02;;;;;;;21.87;16.00;;;;;;;-1.18;100.00;96474.41;5033796;28;20451;-74
2022/12/03 04:56:28;;;;;;;23.40;15.93;;;;;;;-1.37;100.00;96454.03;5033755;28;20446;-73
2022/12/03 04:58:55;;;;;;;22.47;17.97;;;;;;;-1.25;100.00;96472.81;5033949;28;20926;-73
2022/12/03 05:01:22;;;;;;;24.40;16.20;;;;;;;-1.38;100.00;96449.88;5033483;28;20465;-73
2022/12/03 05:03:48;;;;;;;25.07;15.80;;;;;;;-1.26;100.00;96479.03;5033674;28;20564;-74
2022/12/03 05:06:15;;;;;;;22.40;16.40;;;;;;;-1.38;100.00;96455.06;5017069;28;20438;-73
2022/12/03 05:08:42;;;;;;;22.93;16.43;;;;;;;-1.19;100.00;96478.81;5050000;28;20518;-74
2022/12/03 05:11:08;;;;;;;23.37;16.13;;;;;;;-1.29;100.00;96461.38;5033254;28;20548;-74
2022/12/03 05:13:35;;;;;;;23.57;15.50;;;;;;;-1.44;100.00;96440.50;5033352;28;20456;-74
2022/12/03 05:16:02;;;;;;;25.30;17.30;;;;;;;-1.21;100.00;96473.09;5033413;28;20422;-73
2022/12/03 05:18:28;;;;;;;20.43;14.93;;;;;;;-1.35;100.00;96453.78;5033213;28;20484;-73
2022/12/03 05:20:55;;;;;;;26.43;17.20;;;;;;;-1.18;100.00;96469.25;5033285;28;20486;-73
2022/12/03 05:23:22;;;;;;;22.33;16.17;;;;;;;-1.38;100.00;96444.69;5033165;28;20457;-74
2022/12/03 05:25:48;;;;;;;29.30;18.10;;;;;;;-1.24;100.00;96469.19;5038553;28;20468;-73
2022/12/03 05:28:15;;;;;;;26.43;17.23;;;;;;;-1.29;100.00;96461.38;5053258;28;20457;-73
2022/12/03 05:30:42;;;;;;;27.27;17.13;;;;;;;-1.51;100.00;96430.31;5026700;28;20457;-73
2022/12/03 05:33:08;;;;;;;26.60;16.93;;;;;;;-1.28;100.00;96462.16;5034393;28;20422;-72
2022/12/03 05:35:35;;;;;;;26.07;16.20;;;;;;;-1.33;100.00;96470.69;5032905;28;20484;-72
2022/12/03 05:38:02;;;;;;;24.70;16.27;;;;;;;-1.34;100.00;96455.34;5032929;28;20429;-71
2022/12/03 05:40:28;;;;;;;24.73;16.13;;;;;;;-1.56;100.00;96413.94;5050621;28;20460;-73
2022/12/03 05:43:00;;;;;;;25.87;17.73;;;;;;;-1.26;100.00;96452.31;5035570;28;20476;-73
2022/12/03 05:45:29;;;;;;;25.87;17.20;;;;;;;-1.37;100.00;96448.06;5052117;28;20433;-72
2022/12/03 05:47:57;;;;;;;26.20;16.10;;;;;;;-1.21;100.00;96465.31;5052774;28;20951;-72
2022/12/03 05:50:26;;;;;;;24.93;16.13;;;;;;;-1.29;100.00;96456.19;5033041;28;20446;-73
2022/12/03 05:52:54;;;;;;;22.50;14.97;;;;;;;-1.25;100.00;96452.06;5034142;28;20431;-72
2022/12/03 05:55:21;;;;;;;18.70;13.43;;;;;;;-1.30;100.00;96459.81;5039820;28;20510;-72
2022/12/03 05:57:48;;;;;;;23.73;16.20;;;;;;;-1.27;100.00;96463.72;5052091;28;20446;-73
2022/12/03 06:00:20;;;;;;;25.07;16.40;;;;;;;-1.56;100.00;96421.72;5051803;28;20532;-73
2022/12/03 06:02:47;;;;;;;23.20;15.80;;;;;;;-1.42;100.00;96435.84;5053118;28;20459;-73
2022/12/03 06:05:15;;;;;;;24.60;17.30;;;;;;;-1.28;100.00;96454.38;5026877;28;20472;-72
2022/12/03 06:07:42;;;;;;;20.63;14.90;;;;;;;-1.40;100.00;96441.56;5031659;28;20820;-73
2022/12/03 06:10:11;;;;;;;27.20;17.53;;;;;;;-1.28;100.00;96439.59;5031473;28;20462;-73
2022/12/03 06:12:38;;;;;;;21.23;15.87;;;;;;;-1.37;100.00;96422.13;5031632;28;20572;-72
2022/12/03 06:15:06;;;;;;;25.17;14.27;;;;;;;-1.26;100.00;96439.34;5031841;28;20461;-73
2022/12/03 06:17:32;;;;;;;22.33;15.33;;;;;;;-1.18;100.00;96448.50;5031804;28;20434;-73
2022/12/03 06:19:59;;;;;;;22.50;15.27;;;;;;;-1.18;100.00;96448.50;5015297;28;20466;-73
2022/12/03 06:22:26;;;;;;;26.53;15.50;;;;;;;-1.24;100.00;96425.09;5032833;28;21049;-73
2022/12/03 06:24:53;;;;;;;20.60;14.37;;;;;;;-1.30;100.00;96410.53;5033071;28;20524;-73
2022/12/03 06:27:20;;;;;;;18.80;15.17;;;;;;;-1.11;100.00;96438.66;5033073;28;20431;-74
2022/12/03 06:29:46;;;;;;;22.50;15.60;;;;;;;-1.62;100.00;96399.38;5029458;28;20458;-72
2022/12/03 06:32:13;;;;;;;23.03;14.40;;;;;;;-1.26;100.00;96445.31;5028112;28;20866;-73
2022/12/03 06:34:40;;;;;;;19.50;14.90;;;;;;;-1.24;100.00;96452.84;5031161;28;21013;-72
2022/12/03 06:37:07;;;;;;;23.00;14.87;;;;;;;-1.40;100.00;96430.41;5014683;28;20934;-73
2022/12/03 06:39:33;;;;;;;21.33;13.83;;;;;;;-1.54;100.00;96415.28;5032372;28;21079;-73
2022/12/03 06:42:00;;;;;;;16.27;12.40;;;;;;;-1.36;100.00;96424.47;5034553;28;21103;-73
2022/12/03 06:44:27;;;;;;;17.57;12.07;;;;;;;-1.27;100.00;96454.13;5051071;28;20441;-73
2022/12/03 06:46:53;;;;;;;16.10;11.80;;;;;;;-1.23;100.00;96481.13;5050698;28;20449;-73
2022/12/03 06:49:20;;;;;;;15.70;11.90;;;;;;;-1.17;100.00;96481.16;5051328;28;20473;-73
2022/12/03 06:51:47;;;;;;;21.80;12.97;;;;;;;-1.54;100.00;96430.03;5052396;28;20437;-73
2022/12/03 06:54:13;;;;;;;15.10;11.87;;;;;;;-1.43;100.00;96462.81;5050973;28;20945;-73
2022/12/03 06:56:40;;;;;;;19.50;14.47;;;;;;;-1.25;100.00;96477.22;5050790;28;21072;-73
2022/12/03 06:59:11;;;;;;;15.53;11.60;;;;;;;-1.26;100.00;96478.25;5050977;28;20448;-73
2022/12/03 07:01:37;;;;;;;17.20;11.63;;;;;;;-1.40;100.00;96464.91;5050773;28;20944;-73
2022/12/03 07:04:04;;;;;;;13.67;9.90;;;;;;;-1.45;100.00;96464.88;5052264;28;20544;-73
2022/12/03 07:06:31;;;;;;;15.63;10.90;;;;;;;-1.17;100.00;96483.78;5051026;28;20548;-73
2022/12/03 07:08:57;;;;;;;15.43;11.63;;;;;;;-1.31;100.00;96460.06;5050266;28;20457;-73
2022/12/03 07:11:30;;;;;;;15.13;10.20;;;;;;;-1.43;100.00;96459.44;5050791;28;20543;-74
2022/12/03 07:13:59;;;;;;;15.07;10.37;;;;;;;-1.12;100.00;96492.34;5050596;28;21015;-74
2022/12/03 07:16:32;;;;;;;15.73;10.07;;;;;;;-1.28;100.00;96449.97;5052169;28;20421;-74
2022/12/03 07:18:58;;;;;;;11.50;9.00;;;;;;;-1.01;100.00;96493.22;5050495;28;20814;-74
2022/12/03 07:21:25;;;;;;;11.67;9.03;;;;;;;-1.26;100.00;96481.63;5050572;28;20445;-73
2022/12/03 07:23:52;;;;;;;11.80;9.00;;;;;;;-1.29;100.00;96471.75;5035139;28;20466;-74
2022/12/03 07:26:18;;;;;;;10.70;8.40;;;;;;;-1.24;100.00;96494.34;5038801;28;20451;-74
2022/12/03 07:28:47;;;;;;;11.80;8.57;;;;;;;-1.22;100.00;96493.06;5051740;28;20471;-74
2022/12/03 07:31:14;;;;;;;14.30;9.47;;;;;;;-1.28;100.00;96481.09;5036591;28;20977;-74
2022/12/03 07:33:41;;;;;;;10.83;9.40;;;;;;;-1.18;100.00;96492.59;5030451;28;20443;-73
2022/12/03 07:36:09;;;;;;;10.33;8.13;;;;;;;-1.20;100.00;96501.38;5030688;28;20537;-73
2022/12/03 07:38:35;;;;;;;10.77;8.70;;;;;;;-1.11;100.00;96493.13;5014015;28;20444;-71
2022/12/03 07:41:02;;;;;;;13.03;8.87;;;;;;;-1.17;100.00;96497.50;5031553;28;20536;-71
2022/12/03 07:43:29;;;;;;;12.43;9.70;;;;;;;-1.10;100.00;96495.47;5030060;28;21560;-72
2022/12/03 07:45:56;;;;;;;11.50;9.30;;;;;;;-1.13;100.00;96498.59;5030374;28;20457;-73
2022/12/03 07:48:22;;;;;;;13.83;9.27;;;;;;;-1.48;100.00;96468.72;5017122;28;20443;-73
2022/12/03 07:50:49;;;;;;;12.93;8.97;;;;;;;-1.24;100.00;96482.16;5050127;28;20999;-73
2022/12/03 07:53:16;;;;;;;15.80;8.87;;;;;;;-1.23;100.00;96483.72;5051510;28;20811;-74
2022/12/03 07:55:42;;;;;;;11.50;7.97;;;;;;;-1.12;100.00;96484.56;5050271;28;20493;-74
2022/12/03 07:58:10;;;;;;;10.30;8.77;;;;;;;-1.14;100.00;96478.06;5049846;28;20568;-73
2022/12/03 08:00:37;;;;;;;15.60;9.97;;;;;;;-1.30;100.00;96465.00;5033333;28;21002;-73
2022/12/03 08:03:04;;;;;;;13.77;10.30;;;;;;;-1.34;100.00;96455.34;5033690;28;20552;-73
2022/12/03 08:05:34;;;;;;;12.10;9.23;;;;;;;-1.24;100.00;96455.44;5051783;28;20440;-73
2022/12/03 08:08:00;;;;;;;12.67;9.73;;;;;;;-0.97;100.00;96491.69;5050330;28;21036;-73
2022/12/03 08:10:27;;;;;;;9.90;8.60;;;;;;;-1.06;100.00;96468.03;5049936;28;20547;-73
2022/12/03 08:12:57;;;;;;;13.23;9.07;;;;;;;-0.96;100.00;96495.84;5051041;28;20432;-73
2022/12/03 08:15:26;;;;;;;11.27;9.10;;;;;;;-1.05;100.00;96490.34;5049663;28;20424;-73
2022/12/03 08:17:58;;;;;;;13.47;9.70;;;;;;;-1.00;100.00;96484.41;5050933;28;20434;-73
2022/12/03 08:20:32;;;;;;;12.27;8.93;;;;;;;-0.94;100.00;96491.19;5032878;28;20483;-73
2022/12/03 08:23:05;;;;;;;11.40;9.17;;;;;;;-0.85;100.00;96488.94;5025310;28;20496;-74
2022/12/03 08:25:32;;;;;;;11.67;10.07;;;;;;;-1.17;100.00;96458.63;5045859;28;20477;-74
2022/12/03 08:28:09;;;;;;;14.60;10.47;;;;;;;-0.96;100.00;96485.47;5049785;28;20466;-73
2022/12/03 08:30:36;;;;;;;13.87;9.50;;;;;;;-1.29;100.00;96443.22;5024800;28;20502;-74
2022/12/03 08:33:18;;;;;;;14.87;10.00;;;;;;;-1.26;100.00;96455.69;5040229;28;20507;-74
2022/12/03 08:35:49;;;;;;;13.40;11.30;;;;;;;-1.23;100.00;96455.19;5043642;28;20440;-75
2022/12/03 08:38:20;;;;;;;14.00;10.00;;;;;;;-1.11;100.00;96473.16;5029504;28;20441;-75
2022/12/03 08:40:49;;;;;;;14.30;10.00;;;;;;;-1.16;100.00;96464.56;5049407;28;20989;-75
2022/12/03 08:43:23;;;;;;;14.83;11.30;;;;;;;-1.10;100.00;96479.13;5048413;28;20983;-75
2022/12/03 08:45:54;;;;;;;14.00;9.27;;;;;;;-1.24;100.00;96456.22;5029617;28;20500;-75
2022/12/03 08:48:24;;;;;;;16.50;9.97;;;;;;;-1.07;100.00;96468.25;5030931;28;20925;-74
2022/12/03 08:50:53;;;;;;;11.40;10.20;;;;;;;-1.24;100.00;96445.06;5013586;28;21008;-75
2022/12/03 08:54:11;;;;;;;14.10;11.80;;;;;;;-1.10;100.00;96471.34;5036241;28;20815;-74
2022/12/03 08:56:38;;;;;;;14.63;12.20;;;;;;;-1.11;100.00;96456.81;4977296;28;20436;-74
2022/12/03 08:59:24;;;;;;;13.83;10.37;;;;;;;-1.29;100.00;96427.66;5017116;28;20524;-74
2022/12/03 09:01:52;;;;;;;19.77;12.43;;;;;;;-1.04;100.00;96460.78;5016712;28;20973;-74
2022/12/03 09:04:34;;;;;;;13.07;10.97;;;;;;;-0.98;100.00;96464.97;5029488;28;20508;-74
2022/12/03 09:07:01;;;;;;;16.30;11.93;;;;;;;-1.22;100.00;96432.63;5041275;28;20943;-74
2022/12/03 09:09:28;;;;;;;11.30;9.07;;;;;;;-1.02;100.00;96458.72;5029124;28;20458;-74
2022/12/03 09:11:55;;;;;;;13.80;11.03;;;;;;;-1.00;100.00;96467.03;5038835;28;20960;-74
2022/12/03 09:14:22;;;;;;;18.43;9.27;;;;;;;-1.09;100.00;96470.31;5048521;28;20473;-74
2022/12/03 09:16:54;;;;;;;13.90;9.73;;;;;;;-1.06;100.00;96472.44;5032300;28;20438;-74
2022/12/03 09:19:26;;;;;;;11.90;9.43;;;;;;;-1.10;100.00;96442.81;5046631;28;20468;-74
2022/12/03 09:21:53;;;;;;;13.37;10.50;;;;;;;-1.07;100.00;96450.09;5032825;28;20452;-74
2022/12/03 09:24:20;;;;;;;10.53;8.77;;;;;;;-0.82;100.00;96471.03;5031177;28;20450;-74
2022/12/03 09:26:47;;;;;;;13.00;10.30;;;;;;;-0.83;100.00;96474.66;5029307;28;20432;-74
2022/12/03 09:29:13;;;;;;;10.00;8.63;;;;;;;-1.13;100.00;96445.91;5020964;28;20445;-74
2022/12/03 09:31:40;;;;;;;9.37;8.40;;;;;;;-0.96;100.00;96462.91;5016850;28;20484;-74
2022/12/03 09:34:09;;;;;;;12.80;9.50;;;;;;;-1.01;100.00;96482.84;5032445;28;20430;-74
2022/12/03 09:36:36;;;;;;;12.80;8.47;;;;;;;-1.10;100.00;96443.59;5032609;28;20434;-74
2022/12/03 09:39:03;;;;;;;12.33;8.50;;;;;;;-1.22;100.00;96441.19;5035430;28;20433;-74
2022/12/03 09:41:29;;;;;;;13.73;9.53;;;;;;;-0.97;100.00;96460.56;5052502;28;20437;-74
2022/12/03 09:43:56;;;;;;;12.10;9.70;;;;;;;-0.98;100.00;96459.00;5048846;28;20487;-74
2022/12/03 09:46:35;;;;;;;12.77;10.20;;;;;;;-0.96;100.00;96460.31;5032587;28;20433;-72
2022/12/03 09:49:04;;;;;;;12.40;9.27;;;;;;;-1.09;100.00;96439.97;5033472;28;20422;-75
2022/12/03 09:51:35;;;;;;;11.10;9.00;;;;;;;-0.99;100.00;96436.69;5032310;28;20442;-72
2022/12/03 09:54:05;;;;;;;12.07;9.67;;;;;;;-0.95;100.00;96455.91;5025081;28;20440;-72
2022/12/03 09:56:36;;;;;;;11.87;9.43;;;;;;;-1.23;100.00;96412.91;5037087;28;20411;-73
2022/12/03 09:59:12;;;;;;;11.60;8.27;;;;;;;-0.92;100.00;96453.59;5042364;28;20461;-73
2022/12/03 10:01:39;;;;;;;11.03;9.17;;;;;;;-0.99;100.00;96447.84;5033493;28;20437;-73
2022/12/03 10:04:06;;;;;;;9.80;8.63;;;;;;;-0.78;100.00;96469.53;5031955;28;20470;-73
2022/12/03 10:06:33;;;;;;;8.87;7.97;;;;;;;-0.98;100.00;96420.84;5050513;28;20536;-73
2022/12/03 10:09:00;;;;;;;10.37;9.10;;;;;;;-0.70;100.00;96468.25;5035189;28;20532;-72
2022/12/03 10:11:28;;;;;;;11.07;8.70;;;;;;;-0.54;100.00;96464.72;5051800;28;20432;-73
2022/12/03 10:13:56;;;;;;;9.57;8.43;;;;;;;-0.78;100.00;96460.97;5053551;28;20430;-73
2022/12/03 10:16:24;;;;;;;9.97;8.97;;;;;;;-1.04;100.00;96436.66;5029232;28;21021;-73
2022/12/03 10:18:54;;;;;;;8.47;7.40;;;;;;;-0.81;100.00;96445.88;5032507;28;20449;-74
2022/12/03 10:21:30;;;;;;;14.60;11.63;;;;;;;-1.04;100.00;96414.09;5032847;28;20485;-74
2022/12/03 10:24:15;;;;;;;16.93;15.13;;;;;;;-0.74;100.00;96449.81;4999304;28;20473;-74
2022/12/03 10:26:44;;;;;;;19.27;16.20;;;;;;;-0.80;100.00;96447.44;5015056;28;20442;-74
2022/12/03 10:29:15;;;;;;;18.23;14.87;;;;;;;-0.79;100.00;96452.41;5031523;28;20466;-74
2022/12/03 10:31:42;;;;;;;19.77;16.17;;;;;;;-0.92;100.00;96426.88;5032653;28;20520;-74
2022/12/03 10:34:10;;;;;;;12.03;9.90;;;;;;;-1.03;100.00;96407.09;5032641;28;20426;-74
2022/12/03 10:36:37;;;;;;;9.80;8.77;;;;;;;-0.81;100.00;96425.88;5031430;28;20434;-74
2022/12/03 10:39:15;;;;;;;13.63;8.50;;;;;;;-0.73;100.00;96441.00;5031115;28;20448;-73
2022/12/03 10:41:43;;;;;;;9.67;7.20;;;;;;;-0.80;100.00;96440.44;5031100;28;20482;-73
2022/12/03 10:44:24;;;;;;;10.80;8.50;;;;;;;-0.79;100.00;96451.63;5040798;28;20456;-73
2022/12/03 10:47:10;;;;;;;10.40;7.80;;;;;;;-0.93;100.00;96407.94;5050919;28;20472;-74
2022/12/03 10:49:38;;;;;;;9.40;7.93;;;;;;;-0.58;100.00;96440.28;5050739;28;20804;-73
2022/12/03 10:52:13;;;;;;;9.30;7.43;;;;;;;-0.56;100.00;96435.63;5052358;28;20418;-73
2022/12/03 10:54:40;;;;;;;8.83;7.87;;;;;;;-0.93;100.00;96379.41;5051048;28;20432;-73
2022/12/03 10:57:08;;;;;;;14.73;10.00;;;;;;;-0.63;100.00;96416.91;5052035;28;20520;-73
2022/12/03 10:59:36;;;;;;;9.90;8.50;;;;;;;-0.79;100.00;96400.50;5035543;28;20551;-73
2022/12/03 11:02:17;;;;;;;10.97;8.47;;;;;;;-0.81;100.00;96389.56;5023337;28;20752;-73
2022/12/03 11:04:44;;;;;;;12.33;10.40;;;;;;;-0.63;100.00;96406.53;5034233;28;20559;-73
2022/12/03 11:07:16;;;;;;;10.77;8.23;;;;;;;-0.96;100.00;96381.69;5050437;28;20473;-73
2022/12/03 11:09:45;;;;;;;10.07;8.20;;;;;;;-0.76;100.00;96419.97;5033818;28;20463;-73
2022/12/03 11:12:20;;;;;;;9.73;8.20;;;;;;;-0.65;100.00;96431.97;5033965;28;20451;-73
2022/12/03 11:14:49;;;;;;;12.33;10.70;;;;;;;-0.68;100.00;96432.44;5017898;28;20529;-73
2022/12/03 11:17:40;;;;;;;13.03;11.30;;;;;;;-0.63;100.00;96407.31;5031787;28;20871;-73
2022/12/03 11:20:19;;;;;;;9.80;8.80;;;;;;;-0.64;100.00;96405.75;5041602;28;20475;-73
2022/12/03 11:22:49;;;;;;;11.03;8.90;;;;;;;-0.58;100.00;96396.16;5045174;28;20441;-73
2022/12/03 11:25:28;;;;;;;10.47;9.17;;;;;;;-0.63;100.00;96412.50;5014312;28;20587;-73
2022/12/03 11:28:13;;;;;;;9.70;7.97;;;;;;;-0.55;100.00;96406.03;5019201;28;20787;-73
2022/12/03 11:30:52;;;;;;;11.87;10.77;;;;;;;-0.62;100.00;96395.88;5026477;28;20493;-73
2022/12/03 11:33:23;;;;;;;10.03;7.30;;;;;;;-0.51;100.00;96401.91;5030258;28;20442;-73
2022/12/03 11:36:02;;;;;;;8.60;6.97;;;;;;;-0.50;100.00;96397.50;5030273;28;20445;-73
2022/12/03 11:38:48;;;;;;;7.97;7.17;;;;;;;-0.51;100.00;96390.75;5046464;28;20482;-74
2022/12/03 11:41:20;;;;;;;8.20;7.40;;;;;;;-0.46;100.00;96394.13;5038668;28;20450;-73